sensor_id;sensor_type;location;lat;lon;timestamp;P1;durP1;ratioP1;P2;durP2;ratioP2
39452;SDS011;25154;-33.684;151.102;2023-01-05T00:02:36;8.57;;;1.50;;
39452;SDS011;25154;-33.684;151.102;2023-01-05T00:07:39;12.63;;;1.63;;
39452;SDS011;25154;-33.684;151.102;2023-01-05T00:12:42;10.95;;;1.75;;
39452;SDS011;25154;-33.684;151.102;2023-01-05T00:18:07;10.65;;;1.85;;
39452;SDS011;25154;-33.684;151.102;2023-01-05T00:23:31;12.75;;;1.70;;
39452;SDS011;25154;-33.684;151.102;2023-01-05T00:28:33;16.23;;;2.10;;
39452;SDS011;25154;-33.684;151.102;2023-01-05T00:33:36;10.20;;;1.70;;
39452;SDS011;25154;-33.684;151.102;2023-01-05T00:38:39;10.70;;;1.80;;
39452;SDS011;25154;-33.684;151.102;2023-01-05T00:43:42;7.25;;;1.48;;
39452;SDS011;25154;-33.684;151.102;2023-01-05T00:48:44;12.73;;;2.05;;
39452;SDS011;25154;-33.684;151.102;2023-01-05T00:53:47;7.50;;;1.35;;
39452;SDS011;25154;-33.684;151.102;2023-01-05T00:58:52;11.48;;;1.58;;
39452;SDS011;25154;-33.684;151.102;2023-01-05T01:03:55;13.52;;;1.77;;
39452;SDS011;25154;-33.684;151.102;2023-01-05T01:08:58;8.70;;;2.03;;
39452;SDS011;25154;-33.684;151.102;2023-01-05T01:14:01;7.57;;;1.75;;
39452;SDS011;25154;-33.684;151.102;2023-01-05T01:19:04;10.23;;;1.50;;
39452;SDS011;25154;-33.684;151.102;2023-01-05T01:24:07;10.85;;;1.95;;
39452;SDS011;25154;-33.684;151.102;2023-01-05T01:29:15;9.75;;;1.30;;
39452;SDS011;25154;-33.684;151.102;2023-01-05T01:34:18;13.63;;;1.95;;
39452;SDS011;25154;-33.684;151.102;2023-01-05T01:39:21;9.10;;;1.48;;
39452;SDS011;25154;-33.684;151.102;2023-01-05T01:50:19;13.60;;;1.77;;
39452;SDS011;25154;-33.684;151.102;2023-01-05T01:55:27;14.23;;;2.75;;
39452;SDS011;25154;-33.684;151.102;2023-01-05T02:00:32;8.02;;;1.85;;
39452;SDS011;25154;-33.684;151.102;2023-01-05T02:05:35;9.05;;;2.30;;
39452;SDS011;25154;-33.684;151.102;2023-01-05T02:16:01;9.80;;;1.38;;
39452;SDS011;25154;-33.684;151.102;2023-01-05T02:32:18;9.05;;;1.90;;
39452;SDS011;25154;-33.684;151.102;2023-01-05T02:42:41;5.82;;;1.30;;
39452;SDS011;25154;-33.684;151.102;2023-01-05T02:47:46;8.18;;;1.33;;
39452;SDS011;25154;-33.684;151.102;2023-01-05T02:52:52;6.22;;;1.30;;
39452;SDS011;25154;-33.684;151.102;2023-01-05T02:58:02;10.20;;;1.70;;
39452;SDS011;25154;-33.684;151.102;2023-01-05T03:03:20;8.43;;;1.35;;
39452;SDS011;25154;-33.684;151.102;2023-01-05T03:08:30;8.63;;;1.42;;
39452;SDS011;25154;-33.684;151.102;2023-01-05T03:13:38;8.38;;;1.48;;
39452;SDS011;25154;-33.684;151.102;2023-01-05T03:18:43;8.55;;;1.63;;
39452;SDS011;25154;-33.684;151.102;2023-01-05T03:24:06;7.40;;;2.33;;
39452;SDS011;25154;-33.684;151.102;2023-01-05T03:29:27;7.47;;;1.20;;
39452;SDS011;25154;-33.684;151.102;2023-01-05T03:40:14;8.90;;;1.70;;
39452;SDS011;25154;-33.684;151.102;2023-01-05T03:45:41;9.35;;;1.45;;
39452;SDS011;25154;-33.684;151.102;2023-01-05T03:50:52;9.95;;;1.63;;
39452;SDS011;25154;-33.684;151.102;2023-01-05T03:55:55;13.32;;;1.67;;
39452;SDS011;25154;-33.684;151.102;2023-01-05T04:00:57;7.10;;;1.33;;
39452;SDS011;25154;-33.684;151.102;2023-01-05T04:06:03;11.70;;;1.63;;
39452;SDS011;25154;-33.684;151.102;2023-01-05T04:11:09;10.77;;;1.83;;
39452;SDS011;25154;-33.684;151.102;2023-01-05T04:16:17;10.20;;;1.40;;
39452;SDS011;25154;-33.684;151.102;2023-01-05T04:21:20;10.55;;;1.90;;
39452;SDS011;25154;-33.684;151.102;2023-01-05T04:26:23;8.20;;;1.67;;
39452;SDS011;25154;-33.684;151.102;2023-01-05T04:36:36;6.70;;;1.25;;
39452;SDS011;25154;-33.684;151.102;2023-01-05T04:41:38;4.05;;;1.42;;
39452;SDS011;25154;-33.684;151.102;2023-01-05T04:46:41;8.27;;;1.30;;
39452;SDS011;25154;-33.684;151.102;2023-01-05T04:51:44;7.82;;;1.73;;
39452;SDS011;25154;-33.684;151.102;2023-01-05T04:56:47;14.27;;;3.22;;
39452;SDS011;25154;-33.684;151.102;2023-01-05T05:01:50;9.07;;;1.50;;
39452;SDS011;25154;-33.684;151.102;2023-01-05T05:06:53;7.30;;;1.38;;
39452;SDS011;25154;-33.684;151.102;2023-01-05T05:11:55;9.48;;;1.85;;
39452;SDS011;25154;-33.684;151.102;2023-01-05T05:16:58;13.85;;;2.90;;
39452;SDS011;25154;-33.684;151.102;2023-01-05T05:22:01;13.45;;;1.75;;
39452;SDS011;25154;-33.684;151.102;2023-01-05T05:27:04;13.48;;;2.00;;
39452;SDS011;25154;-33.684;151.102;2023-01-05T05:32:06;6.70;;;1.65;;
39452;SDS011;25154;-33.684;151.102;2023-01-05T05:37:09;13.65;;;1.77;;
39452;SDS011;25154;-33.684;151.102;2023-01-05T05:42:12;9.32;;;1.65;;
39452;SDS011;25154;-33.684;151.102;2023-01-05T05:47:14;7.82;;;1.45;;
39452;SDS011;25154;-33.684;151.102;2023-01-05T05:52:17;11.25;;;1.38;;
39452;SDS011;25154;-33.684;151.102;2023-01-05T05:57:20;12.95;;;2.20;;
39452;SDS011;25154;-33.684;151.102;2023-01-05T06:02:23;10.95;;;1.75;;
39452;SDS011;25154;-33.684;151.102;2023-01-05T06:07:25;10.43;;;1.50;;
39452;SDS011;25154;-33.684;151.102;2023-01-05T06:12:28;11.38;;;1.83;;
39452;SDS011;25154;-33.684;151.102;2023-01-05T06:17:31;12.98;;;2.00;;
39452;SDS011;25154;-33.684;151.102;2023-01-05T06:22:33;6.82;;;1.40;;
39452;SDS011;25154;-33.684;151.102;2023-01-05T06:27:36;8.40;;;1.80;;
39452;SDS011;25154;-33.684;151.102;2023-01-05T06:32:39;9.13;;;1.60;;
39452;SDS011;25154;-33.684;151.102;2023-01-05T06:37:42;7.63;;;1.80;;
39452;SDS011;25154;-33.684;151.102;2023-01-05T06:42:44;10.75;;;1.60;;
39452;SDS011;25154;-33.684;151.102;2023-01-05T06:47:47;8.63;;;1.38;;
39452;SDS011;25154;-33.684;151.102;2023-01-05T06:52:50;5.00;;;1.55;;
39452;SDS011;25154;-33.684;151.102;2023-01-05T06:57:52;10.73;;;2.10;;
39452;SDS011;25154;-33.684;151.102;2023-01-05T07:02:55;7.82;;;1.17;;
39452;SDS011;25154;-33.684;151.102;2023-01-05T07:07:58;8.40;;;1.95;;
39452;SDS011;25154;-33.684;151.102;2023-01-05T07:13:01;7.18;;;1.70;;
39452;SDS011;25154;-33.684;151.102;2023-01-05T07:23:14;9.02;;;1.73;;
39452;SDS011;25154;-33.684;151.102;2023-01-05T07:28:17;8.90;;;1.20;;
39452;SDS011;25154;-33.684;151.102;2023-01-05T07:33:19;6.15;;;1.13;;
39452;SDS011;25154;-33.684;151.102;2023-01-05T07:38:22;10.13;;;2.10;;
39452;SDS011;25154;-33.684;151.102;2023-01-05T07:43:25;13.07;;;3.17;;
39452;SDS011;25154;-33.684;151.102;2023-01-05T07:48:28;12.93;;;2.92;;
39452;SDS011;25154;-33.684;151.102;2023-01-05T07:53:32;11.50;;;2.20;;
39452;SDS011;25154;-33.684;151.102;2023-01-05T07:58:37;6.85;;;1.92;;
39452;SDS011;25154;-33.684;151.102;2023-01-05T08:03:40;5.78;;;1.48;;
39452;SDS011;25154;-33.684;151.102;2023-01-05T08:08:47;14.13;;;2.28;;
39452;SDS011;25154;-33.684;151.102;2023-01-05T08:13:50;28.77;;;3.40;;
39452;SDS011;25154;-33.684;151.102;2023-01-05T08:19:02;5.85;;;1.20;;
39452;SDS011;25154;-33.684;151.102;2023-01-05T08:24:05;5.72;;;1.50;;
39452;SDS011;25154;-33.684;151.102;2023-01-05T08:29:08;9.02;;;1.45;;
39452;SDS011;25154;-33.684;151.102;2023-01-05T08:34:11;9.18;;;1.70;;
39452;SDS011;25154;-33.684;151.102;2023-01-05T08:39:14;9.93;;;2.00;;
39452;SDS011;25154;-33.684;151.102;2023-01-05T08:44:17;12.70;;;2.70;;
39452;SDS011;25154;-33.684;151.102;2023-01-05T08:49:20;8.10;;;1.10;;
39452;SDS011;25154;-33.684;151.102;2023-01-05T08:54:23;6.13;;;1.40;;
39452;SDS011;25154;-33.684;151.102;2023-01-05T08:59:27;11.48;;;1.77;;
39452;SDS011;25154;-33.684;151.102;2023-01-05T09:04:30;6.80;;;1.38;;
39452;SDS011;25154;-33.684;151.102;2023-01-05T09:09:34;7.65;;;1.48;;
39452;SDS011;25154;-33.684;151.102;2023-01-05T09:14:38;7.78;;;1.20;;
39452;SDS011;25154;-33.684;151.102;2023-01-05T09:19:42;11.00;;;1.52;;
39452;SDS011;25154;-33.684;151.102;2023-01-05T09:24:45;9.98;;;1.58;;
39452;SDS011;25154;-33.684;151.102;2023-01-05T09:29:47;11.73;;;1.90;;
39452;SDS011;25154;-33.684;151.102;2023-01-05T09:34:50;8.20;;;1.42;;
39452;SDS011;25154;-33.684;151.102;2023-01-05T09:39:53;8.23;;;1.40;;
39452;SDS011;25154;-33.684;151.102;2023-01-05T09:44:58;10.68;;;1.80;;
39452;SDS011;25154;-33.684;151.102;2023-01-05T09:50:08;9.15;;;1.45;;
39452;SDS011;25154;-33.684;151.102;2023-01-05T09:55:22;12.07;;;1.73;;
39452;SDS011;25154;-33.684;151.102;2023-01-05T10:00:27;7.13;;;1.30;;
39452;SDS011;25154;-33.684;151.102;2023-01-05T10:05:31;5.88;;;1.15;;
39452;SDS011;25154;-33.684;151.102;2023-01-05T10:16:07;9.82;;;1.42;;
39452;SDS011;25154;-33.684;151.102;2023-01-05T10:48:28;8.82;;;1.92;;
39452;SDS011;25154;-33.684;151.102;2023-01-05T10:53:36;10.75;;;1.88;;
39452;SDS011;25154;-33.684;151.102;2023-01-05T10:58:42;9.85;;;1.65;;
39452;SDS011;25154;-33.684;151.102;2023-01-05T11:03:46;14.70;;;1.67;;
39452;SDS011;25154;-33.684;151.102;2023-01-05T11:08:52;10.07;;;1.20;;
39452;SDS011;25154;-33.684;151.102;2023-01-05T11:13:55;7.57;;;1.20;;
39452;SDS011;25154;-33.684;151.102;2023-01-05T11:18:59;7.72;;;1.10;;
39452;SDS011;25154;-33.684;151.102;2023-01-05T11:29:31;5.88;;;1.48;;
39452;SDS011;25154;-33.684;151.102;2023-01-05T11:34:47;13.18;;;1.52;;
39452;SDS011;25154;-33.684;151.102;2023-01-05T11:39:53;5.00;;;1.23;;
39452;SDS011;25154;-33.684;151.102;2023-01-05T12:05:54;11.25;;;1.40;;
39452;SDS011;25154;-33.684;151.102;2023-01-05T12:16:28;4.43;;;1.17;;
39452;SDS011;25154;-33.684;151.102;2023-01-05T12:22:11;7.60;;;1.17;;
39452;SDS011;25154;-33.684;151.102;2023-01-05T12:49:31;5.70;;;1.65;;
39452;SDS011;25154;-33.684;151.102;2023-01-05T12:54:52;5.30;;;1.10;;
39452;SDS011;25154;-33.684;151.102;2023-01-05T13:00:14;7.80;;;1.05;;
39452;SDS011;25154;-33.684;151.102;2023-01-05T13:05:21;5.40;;;0.95;;
39452;SDS011;25154;-33.684;151.102;2023-01-05T13:21:05;3.70;;;1.00;;
39452;SDS011;25154;-33.684;151.102;2023-01-05T13:26:14;8.00;;;1.42;;
39452;SDS011;25154;-33.684;151.102;2023-01-05T13:31:28;7.10;;;1.02;;
39452;SDS011;25154;-33.684;151.102;2023-01-05T13:53:16;5.30;;;1.00;;
39452;SDS011;25154;-33.684;151.102;2023-01-05T13:58:32;7.30;;;1.48;;
39452;SDS011;25154;-33.684;151.102;2023-01-05T14:03:39;9.82;;;1.27;;
39452;SDS011;25154;-33.684;151.102;2023-01-05T14:08:51;6.13;;;1.33;;
39452;SDS011;25154;-33.684;151.102;2023-01-05T14:14:56;6.45;;;1.20;;
39452;SDS011;25154;-33.684;151.102;2023-01-05T14:24:36;3.53;;;1.02;;
39452;SDS011;25154;-33.684;151.102;2023-01-05T14:35:01;4.90;;;1.10;;
39452;SDS011;25154;-33.684;151.102;2023-01-05T14:45:34;5.32;;;1.20;;
39452;SDS011;25154;-33.684;151.102;2023-01-05T14:50:40;4.68;;;0.90;;
39452;SDS011;25154;-33.684;151.102;2023-01-05T15:00:57;4.97;;;1.20;;
39452;SDS011;25154;-33.684;151.102;2023-01-05T15:06:24;3.50;;;1.02;;
39452;SDS011;25154;-33.684;151.102;2023-01-05T15:11:39;8.32;;;0.85;;
39452;SDS011;25154;-33.684;151.102;2023-01-05T15:27:50;3.20;;;0.95;;
39452;SDS011;25154;-33.684;151.102;2023-01-05T15:33:02;4.70;;;0.88;;
39452;SDS011;25154;-33.684;151.102;2023-01-05T15:38:27;8.68;;;1.27;;
39452;SDS011;25154;-33.684;151.102;2023-01-05T15:43:31;6.20;;;0.93;;
39452;SDS011;25154;-33.684;151.102;2023-01-05T15:48:35;5.82;;;1.08;;
39452;SDS011;25154;-33.684;151.102;2023-01-05T15:53:51;12.23;;;1.55;;
39452;SDS011;25154;-33.684;151.102;2023-01-05T15:58:55;5.65;;;1.00;;
39452;SDS011;25154;-33.684;151.102;2023-01-05T16:04:08;8.88;;;1.17;;
39452;SDS011;25154;-33.684;151.102;2023-01-05T16:09:19;6.63;;;1.15;;
39452;SDS011;25154;-33.684;151.102;2023-01-05T16:24:43;3.35;;;1.17;;
39452;SDS011;25154;-33.684;151.102;2023-01-05T16:29:49;5.70;;;1.05;;
39452;SDS011;25154;-33.684;151.102;2023-01-05T16:35:18;2.80;;;1.08;;
39452;SDS011;25154;-33.684;151.102;2023-01-05T16:40:21;3.15;;;0.70;;
39452;SDS011;25154;-33.684;151.102;2023-01-05T16:45:24;5.72;;;0.88;;
39452;SDS011;25154;-33.684;151.102;2023-01-05T16:55:35;3.40;;;1.00;;
39452;SDS011;25154;-33.684;151.102;2023-01-05T17:00:38;3.78;;;0.73;;
39452;SDS011;25154;-33.684;151.102;2023-01-05T17:05:40;4.70;;;1.10;;
39452;SDS011;25154;-33.684;151.102;2023-01-05T17:10:43;3.13;;;0.80;;
39452;SDS011;25154;-33.684;151.102;2023-01-05T17:15:46;3.40;;;0.90;;
39452;SDS011;25154;-33.684;151.102;2023-01-05T17:20:50;3.15;;;0.90;;
39452;SDS011;25154;-33.684;151.102;2023-01-05T17:25:55;6.20;;;0.80;;
39452;SDS011;25154;-33.684;151.102;2023-01-05T17:31:00;2.45;;;1.10;;
39452;SDS011;25154;-33.684;151.102;2023-01-05T17:36:02;5.90;;;1.50;;
39452;SDS011;25154;-33.684;151.102;2023-01-05T17:41:05;2.28;;;0.77;;
39452;SDS011;25154;-33.684;151.102;2023-01-05T17:46:13;3.53;;;0.73;;
39452;SDS011;25154;-33.684;151.102;2023-01-05T17:51:18;2.92;;;0.80;;
39452;SDS011;25154;-33.684;151.102;2023-01-05T17:56:21;4.38;;;0.82;;
39452;SDS011;25154;-33.684;151.102;2023-01-05T18:01:23;1.98;;;0.60;;
39452;SDS011;25154;-33.684;151.102;2023-01-05T18:06:26;6.68;;;0.93;;
39452;SDS011;25154;-33.684;151.102;2023-01-05T18:11:28;2.70;;;0.77;;
39452;SDS011;25154;-33.684;151.102;2023-01-05T18:16:31;5.68;;;1.58;;
39452;SDS011;25154;-33.684;151.102;2023-01-05T18:21:33;3.08;;;0.90;;
39452;SDS011;25154;-33.684;151.102;2023-01-05T18:26:36;5.07;;;0.88;;
39452;SDS011;25154;-33.684;151.102;2023-01-05T18:31:38;3.45;;;0.63;;
39452;SDS011;25154;-33.684;151.102;2023-01-05T18:36:40;3.28;;;0.68;;
39452;SDS011;25154;-33.684;151.102;2023-01-05T18:41:43;3.78;;;0.70;;
39452;SDS011;25154;-33.684;151.102;2023-01-05T18:46:45;2.28;;;0.77;;
39452;SDS011;25154;-33.684;151.102;2023-01-05T18:51:48;5.63;;;1.17;;
39452;SDS011;25154;-33.684;151.102;2023-01-05T18:56:52;1.60;;;0.57;;
39452;SDS011;25154;-33.684;151.102;2023-01-05T19:01:54;3.40;;;0.73;;
39452;SDS011;25154;-33.684;151.102;2023-01-05T19:06:57;1.58;;;0.68;;
39452;SDS011;25154;-33.684;151.102;2023-01-05T19:11:59;2.88;;;0.70;;
39452;SDS011;25154;-33.684;151.102;2023-01-05T19:17:02;4.78;;;1.35;;
39452;SDS011;25154;-33.684;151.102;2023-01-05T19:22:04;1.42;;;0.70;;
39452;SDS011;25154;-33.684;151.102;2023-01-05T19:27:07;3.15;;;0.80;;
39452;SDS011;25154;-33.684;151.102;2023-01-05T19:32:09;1.38;;;0.70;;
39452;SDS011;25154;-33.684;151.102;2023-01-05T19:37:13;2.13;;;0.75;;
39452;SDS011;25154;-33.684;151.102;2023-01-05T19:42:16;3.08;;;1.17;;
39452;SDS011;25154;-33.684;151.102;2023-01-05T19:47:20;3.00;;;0.77;;
39452;SDS011;25154;-33.684;151.102;2023-01-05T19:52:22;0.82;;;0.60;;
39452;SDS011;25154;-33.684;151.102;2023-01-05T19:57:29;2.03;;;0.70;;
39452;SDS011;25154;-33.684;151.102;2023-01-05T20:02:31;1.42;;;0.70;;
39452;SDS011;25154;-33.684;151.102;2023-01-05T20:07:33;8.52;;;2.25;;
39452;SDS011;25154;-33.684;151.102;2023-01-05T20:12:41;2.15;;;0.70;;
39452;SDS011;25154;-33.684;151.102;2023-01-05T20:17:43;3.97;;;0.88;;
39452;SDS011;25154;-33.684;151.102;2023-01-05T20:22:45;1.40;;;0.70;;
39452;SDS011;25154;-33.684;151.102;2023-01-05T20:27:48;4.22;;;0.90;;
39452;SDS011;25154;-33.684;151.102;2023-01-05T20:32:50;4.18;;;0.63;;
39452;SDS011;25154;-33.684;151.102;2023-01-05T20:37:53;1.67;;;0.70;;
39452;SDS011;25154;-33.684;151.102;2023-01-05T20:42:55;1.50;;;0.60;;
39452;SDS011;25154;-33.684;151.102;2023-01-05T20:47:57;2.38;;;0.90;;
39452;SDS011;25154;-33.684;151.102;2023-01-05T20:53:00;2.83;;;0.80;;
39452;SDS011;25154;-33.684;151.102;2023-01-05T20:58:02;1.98;;;0.80;;
39452;SDS011;25154;-33.684;151.102;2023-01-05T21:03:04;2.63;;;0.80;;
39452;SDS011;25154;-33.684;151.102;2023-01-05T21:08:07;0.93;;;0.60;;
39452;SDS011;25154;-33.684;151.102;2023-01-05T21:13:13;1.67;;;0.65;;
39452;SDS011;25154;-33.684;151.102;2023-01-05T21:18:16;0.85;;;0.60;;
39452;SDS011;25154;-33.684;151.102;2023-01-05T21:23:20;2.65;;;0.90;;
39452;SDS011;25154;-33.684;151.102;2023-01-05T21:28:23;2.95;;;0.70;;
39452;SDS011;25154;-33.684;151.102;2023-01-05T21:33:26;2.40;;;0.88;;
39452;SDS011;25154;-33.684;151.102;2023-01-05T21:38:29;1.08;;;0.60;;
39452;SDS011;25154;-33.684;151.102;2023-01-05T21:43:32;4.10;;;0.80;;
39452;SDS011;25154;-33.684;151.102;2023-01-05T21:48:36;1.13;;;0.70;;
39452;SDS011;25154;-33.684;151.102;2023-01-05T21:53:39;0.95;;;0.63;;
39452;SDS011;25154;-33.684;151.102;2023-01-05T21:59:01;1.80;;;0.75;;
39452;SDS011;25154;-33.684;151.102;2023-01-05T22:04:06;1.75;;;0.60;;
39452;SDS011;25154;-33.684;151.102;2023-01-05T22:09:09;3.63;;;1.08;;
39452;SDS011;25154;-33.684;151.102;2023-01-05T22:14:12;0.82;;;0.68;;
39452;SDS011;25154;-33.684;151.102;2023-01-05T22:19:15;1.08;;;0.52;;
39452;SDS011;25154;-33.684;151.102;2023-01-05T22:24:17;1.02;;;0.40;;
39452;SDS011;25154;-33.684;151.102;2023-01-05T22:29:20;2.35;;;0.90;;
39452;SDS011;25154;-33.684;151.102;2023-01-05T22:34:23;0.50;;;0.50;;
39452;SDS011;25154;-33.684;151.102;2023-01-05T22:39:26;2.88;;;0.52;;
39452;SDS011;25154;-33.684;151.102;2023-01-05T22:44:32;1.65;;;0.60;;
39452;SDS011;25154;-33.684;151.102;2023-01-05T22:49:35;0.30;;;0.30;;
39452;SDS011;25154;-33.684;151.102;2023-01-05T22:54:38;1.80;;;0.70;;
39452;SDS011;25154;-33.684;151.102;2023-01-05T22:59:41;1.27;;;0.82;;
39452;SDS011;25154;-33.684;151.102;2023-01-05T23:04:43;0.93;;;0.50;;
39452;SDS011;25154;-33.684;151.102;2023-01-05T23:09:45;1.17;;;0.60;;
39452;SDS011;25154;-33.684;151.102;2023-01-05T23:14:51;1.02;;;0.47;;
39452;SDS011;25154;-33.684;151.102;2023-01-05T23:19:53;2.05;;;0.50;;
39452;SDS011;25154;-33.684;151.102;2023-01-05T23:24:55;0.55;;;0.45;;
39452;SDS011;25154;-33.684;151.102;2023-01-05T23:29:58;0.40;;;0.40;;
39452;SDS011;25154;-33.684;151.102;2023-01-05T23:35:00;0.90;;;0.57;;
39452;SDS011;25154;-33.684;151.102;2023-01-05T23:40:02;1.33;;;0.50;;
39452;SDS011;25154;-33.684;151.102;2023-01-05T23:45:05;1.05;;;0.60;;
39452;SDS011;25154;-33.684;151.102;2023-01-05T23:50:09;2.10;;;0.70;;
39452;SDS011;25154;-33.684;151.102;2023-01-05T23:55:12;1.05;;;0.60;;
